createdAt,value
2023-06-26T00:01:57.158Z,15.08
2023-06-26T00:04:25.220Z,15.07
2023-06-26T00:06:53.161Z,15.05
2023-06-26T00:09:21.120Z,15.03
2023-06-26T00:11:49.128Z,15.01
2023-06-26T00:14:17.052Z,14.99
2023-06-26T00:16:45.038Z,14.97
2023-06-26T00:19:12.888Z,14.94
2023-06-26T00:21:40.788Z,14.93
2023-06-26T00:24:08.839Z,14.93
2023-06-26T00:26:36.809Z,14.92
2023-06-26T00:29:04.713Z,14.88
2023-06-26T00:31:32.890Z,14.85
2023-06-26T00:34:00.816Z,14.82
2023-06-26T00:36:28.949Z,14.79
2023-06-26T00:38:56.959Z,14.75
2023-06-26T00:41:24.762Z,14.73
2023-06-26T00:43:52.795Z,14.71
2023-06-26T00:46:20.759Z,14.68
2023-06-26T00:48:50.351Z,14.66
2023-06-26T00:51:18.442Z,14.63
2023-06-26T00:53:46.710Z,14.61
2023-06-26T00:56:15.499Z,14.58
2023-06-26T00:58:43.469Z,14.54
2023-06-26T01:01:15.541Z,14.50
2023-06-26T01:03:47.092Z,14.47
2023-06-26T01:06:17.003Z,14.44
2023-06-26T01:08:46.298Z,14.42
2023-06-26T01:11:15.092Z,14.39
2023-06-26T01:13:47.263Z,14.36
2023-06-26T01:16:20.842Z,14.32
2023-06-26T01:18:50.094Z,14.28
2023-06-26T01:21:19.762Z,14.25
2023-06-26T01:23:56.843Z,14.22
2023-06-26T01:26:28.507Z,14.19
2023-06-26T01:28:58.516Z,14.18
2023-06-26T01:31:28.978Z,14.16
2023-06-26T01:34:00.192Z,14.13
2023-06-26T01:36:28.929Z,14.10
2023-06-26T01:38:56.841Z,14.06
2023-06-26T01:41:25.412Z,14.03
2023-06-26T01:44:14.687Z,14.00
2023-06-26T01:46:54.753Z,13.97
2023-06-26T01:49:28.850Z,13.94
2023-06-26T01:52:04.308Z,13.91
2023-06-26T01:54:36.968Z,13.88
2023-06-26T01:57:06.785Z,13.84
2023-06-26T01:59:35.556Z,13.81
2023-06-26T02:02:03.542Z,13.79
2023-06-26T02:04:31.408Z,13.77
2023-06-26T02:06:59.238Z,13.75
2023-06-26T02:09:27.445Z,13.72
2023-06-26T02:11:55.305Z,13.71
2023-06-26T02:14:23.172Z,13.70
2023-06-26T02:16:51.136Z,13.69
2023-06-26T02:19:22.951Z,13.66
2023-06-26T02:21:51.035Z,13.64
2023-06-26T02:24:18.925Z,13.62
2023-06-26T02:26:47.261Z,13.61
2023-06-26T02:29:15.122Z,13.60
2023-06-26T02:31:43.337Z,13.59
2023-06-26T02:34:11.403Z,13.57
2023-06-26T02:36:39.337Z,13.55
2023-06-26T02:39:07.301Z,13.55
2023-06-26T02:41:35.166Z,13.53
2023-06-26T02:44:03.237Z,13.52
2023-06-26T02:46:31.135Z,13.50
2023-06-26T02:48:59.074Z,13.50
2023-06-26T02:51:26.840Z,13.50
2023-06-26T02:53:54.800Z,13.49
2023-06-26T02:56:22.602Z,13.49
2023-06-26T02:58:50.535Z,13.47
2023-06-26T03:01:18.775Z,13.46
2023-06-26T03:03:48.390Z,13.47
2023-06-26T03:06:16.623Z,13.47
2023-06-26T03:08:44.555Z,13.48
2023-06-26T03:11:12.525Z,13.49
2023-06-26T03:13:40.390Z,13.51
2023-06-26T03:16:08.305Z,13.53
2023-06-26T03:18:36.226Z,13.55
2023-06-26T03:21:04.298Z,13.56
2023-06-26T03:23:32.916Z,13.58
2023-06-26T03:26:00.859Z,13.60
2023-06-26T03:28:28.859Z,13.64
2023-06-26T03:30:56.837Z,13.68
2023-06-26T03:33:24.976Z,13.72
2023-06-26T03:35:53.488Z,13.77
2023-06-26T03:38:25.040Z,13.82
2023-06-26T03:40:53.352Z,13.86
2023-06-26T03:43:21.184Z,13.91
2023-06-26T03:45:49.119Z,13.96
2023-06-26T03:48:17.087Z,14.00
2023-06-26T03:50:46.801Z,14.06
2023-06-26T03:53:14.767Z,14.11
2023-06-26T03:55:42.719Z,14.16
2023-06-26T03:58:10.716Z,14.23
2023-06-26T04:00:38.969Z,14.29
2023-06-26T04:03:06.964Z,14.36
2023-06-26T04:05:35.106Z,14.43
2023-06-26T04:08:03.194Z,14.50
2023-06-26T04:10:31.157Z,14.58
2023-06-26T04:12:59.007Z,14.67
2023-06-26T04:15:26.789Z,14.76
2023-06-26T04:17:55.046Z,14.85
2023-06-26T04:20:23.132Z,14.94
2023-06-26T04:22:51.092Z,15.03
2023-06-26T04:25:19.064Z,15.13
2023-06-26T04:27:46.929Z,15.24
2023-06-26T04:30:15.073Z,15.34
2023-06-26T04:32:42.946Z,15.44
2023-06-26T04:35:12.577Z,15.52
2023-06-26T04:37:40.439Z,15.61
2023-06-26T04:40:11.000Z,15.69
2023-06-26T04:42:39.456Z,15.79
2023-06-26T04:45:08.209Z,15.89
2023-06-26T04:47:36.273Z,15.97
2023-06-26T04:50:04.375Z,16.06
2023-06-26T04:52:32.375Z,16.15
2023-06-26T04:55:00.320Z,16.24
2023-06-26T04:57:28.278Z,16.32
2023-06-26T04:59:56.261Z,16.38
2023-06-26T05:02:24.304Z,16.45
2023-06-26T05:04:52.392Z,16.52
2023-06-26T05:07:20.775Z,16.59
2023-06-26T05:09:48.739Z,16.67
2023-06-26T05:12:16.702Z,16.76
2023-06-26T05:14:44.769Z,16.84
2023-06-26T05:17:12.663Z,16.94
2023-06-26T05:19:40.535Z,17.01
2023-06-26T05:22:09.264Z,17.09
2023-06-26T05:24:38.819Z,17.16
2023-06-26T05:27:07.280Z,17.24
2023-06-26T05:29:38.912Z,17.32
2023-06-26T05:32:08.471Z,17.43
2023-06-26T05:34:36.871Z,17.54
2023-06-26T05:37:06.152Z,17.66
2023-06-26T05:39:34.313Z,17.77
2023-06-26T05:42:02.648Z,17.88
2023-06-26T05:44:30.551Z,17.97
2023-06-26T05:46:58.542Z,18.07
2023-06-26T05:49:26.393Z,18.17
2023-06-26T05:51:54.664Z,18.26
2023-06-26T05:54:23.864Z,18.36
2023-06-26T05:57:00.487Z,18.47
2023-06-26T05:59:29.628Z,18.60
2023-06-26T06:01:57.538Z,18.74
2023-06-26T06:04:25.974Z,18.86
2023-06-26T06:06:53.880Z,18.99
2023-06-26T06:09:21.744Z,19.14
2023-06-26T06:11:49.772Z,19.28
2023-06-26T06:14:17.740Z,19.41
2023-06-26T06:16:45.610Z,19.53
2023-06-26T06:19:14.967Z,19.67
2023-06-26T06:21:44.423Z,19.80
2023-06-26T06:24:12.328Z,19.95
2023-06-26T06:26:40.274Z,20.09
2023-06-26T06:29:08.174Z,20.23
2023-06-26T06:31:36.123Z,20.35
2023-06-26T06:34:04.164Z,20.49
2023-06-26T06:36:32.547Z,20.63
2023-06-26T06:39:00.412Z,20.75
2023-06-26T06:41:28.380Z,20.88
2023-06-26T06:43:56.447Z,20.99
2023-06-26T06:46:24.620Z,21.10
2023-06-26T06:48:52.693Z,21.23
2023-06-26T06:51:20.607Z,21.38
2023-06-26T06:53:48.542Z,21.56
2023-06-26T06:56:16.495Z,21.77
2023-06-26T06:58:44.665Z,21.98
2023-06-26T07:01:12.779Z,22.14
2023-06-26T07:03:41.844Z,22.25
2023-06-26T07:06:10.318Z,22.34
2023-06-26T07:08:38.229Z,22.46
2023-06-26T07:11:06.146Z,22.61
2023-06-26T07:13:34.112Z,22.78
2023-06-26T07:16:02.019Z,22.93
2023-06-26T07:18:30.081Z,23.02
2023-06-26T07:20:58.008Z,23.06
2023-06-26T07:23:25.911Z,23.07
2023-06-26T07:25:54.253Z,23.08
2023-06-26T07:28:22.129Z,23.04
2023-06-26T07:30:50.293Z,22.99
2023-06-26T07:33:18.164Z,23.00
2023-06-26T07:35:46.125Z,23.04
2023-06-26T07:38:14.097Z,23.12
2023-06-26T07:40:42.103Z,23.22
2023-06-26T07:43:10.054Z,23.29
2023-06-26T07:45:37.999Z,23.36
2023-06-26T07:48:07.569Z,23.46
2023-06-26T07:50:35.895Z,23.59
2023-06-26T07:53:04.184Z,23.68
2023-06-26T07:55:32.601Z,23.66
2023-06-26T07:58:00.982Z,23.66
2023-06-26T08:00:28.998Z,23.74
2023-06-26T08:02:57.079Z,23.84
2023-06-26T08:05:25.660Z,23.96
2023-06-26T08:07:53.915Z,24.04
2023-06-26T08:10:21.780Z,24.14
2023-06-26T08:12:51.800Z,24.25
2023-06-26T08:15:19.766Z,24.35
2023-06-26T08:17:48.398Z,24.43
2023-06-26T08:20:16.728Z,24.51
2023-06-26T08:22:44.995Z,24.59
2023-06-26T08:25:12.999Z,24.70
2023-06-26T08:27:40.867Z,24.80
2023-06-26T08:30:09.567Z,24.89
2023-06-26T08:32:37.708Z,24.99
2023-06-26T08:35:08.132Z,25.03
2023-06-26T08:37:36.096Z,25.12
2023-06-26T08:40:05.415Z,25.24
2023-06-26T08:42:33.467Z,25.35
2023-06-26T08:45:02.513Z,25.43
2023-06-26T08:47:36.317Z,25.51
2023-06-26T08:50:13.794Z,25.59
2023-06-26T08:52:58.010Z,25.68
2023-06-26T08:55:30.069Z,25.74
2023-06-26T08:57:59.456Z,25.79
2023-06-26T09:00:27.542Z,25.86
2023-06-26T09:02:57.593Z,25.92
2023-06-26T09:05:28.522Z,25.98
2023-06-26T09:07:59.105Z,26.03
2023-06-26T09:10:27.702Z,26.09
2023-06-26T09:12:59.564Z,26.11
2023-06-26T09:15:27.854Z,26.23
2023-06-26T09:18:00.055Z,26.35
2023-06-26T09:20:32.279Z,26.40
2023-06-26T09:23:00.654Z,26.45
2023-06-26T09:25:29.356Z,26.55
2023-06-26T09:27:58.286Z,26.64
2023-06-26T09:30:26.547Z,26.59
2023-06-26T09:32:55.874Z,26.45
2023-06-26T09:35:25.038Z,26.36
2023-06-26T09:37:53.926Z,26.37
2023-06-26T09:40:22.254Z,26.42
2023-06-26T09:42:50.903Z,26.48
2023-06-26T09:45:20.737Z,26.51
2023-06-26T09:47:49.268Z,26.48
2023-06-26T09:50:25.392Z,26.48
2023-06-26T09:52:54.025Z,26.52
2023-06-26T09:55:23.889Z,26.60
2023-06-26T09:57:53.092Z,26.61
2023-06-26T10:00:21.919Z,26.57
2023-06-26T10:02:50.399Z,26.53
2023-06-26T10:05:19.398Z,26.56
2023-06-26T10:07:49.229Z,26.56
2023-06-26T10:10:18.593Z,26.58
2023-06-26T10:12:50.296Z,26.65
2023-06-26T10:15:20.711Z,26.73
2023-06-26T10:17:50.765Z,26.78
2023-06-26T10:20:19.804Z,26.70
2023-06-26T10:22:49.013Z,26.64
2023-06-26T10:25:22.610Z,26.60
2023-06-26T10:27:57.040Z,26.61
2023-06-26T10:30:34.601Z,26.61
2023-06-26T10:33:04.685Z,26.69
2023-06-26T10:35:33.444Z,26.78
2023-06-26T10:38:05.805Z,26.80
2023-06-26T10:40:50.048Z,26.88
2023-06-26T10:43:19.873Z,26.94
2023-06-26T10:46:11.678Z,27.02
2023-06-26T10:49:01.279Z,27.11
2023-06-26T10:51:31.897Z,27.22
2023-06-26T10:54:01.074Z,27.21
2023-06-26T10:56:57.933Z,27.23
2023-06-26T10:59:31.406Z,27.28
2023-06-26T11:02:10.003Z,27.25
2023-06-26T11:04:47.295Z,27.21
2023-06-26T11:07:26.744Z,27.23
2023-06-26T11:10:02.880Z,27.19
2023-06-26T11:12:43.871Z,27.22
2023-06-26T11:15:20.794Z,27.32
2023-06-26T11:17:49.827Z,27.38
2023-06-26T11:20:19.253Z,27.46
2023-06-26T11:22:48.612Z,27.44
2023-06-26T11:25:16.642Z,27.47
2023-06-26T11:27:46.062Z,27.55
2023-06-26T11:30:25.609Z,27.62
2023-06-26T11:32:54.429Z,27.69
2023-06-26T11:35:31.515Z,27.73
2023-06-26T11:38:05.556Z,27.77
2023-06-26T11:40:40.520Z,27.79
2023-06-26T11:43:09.177Z,27.75
2023-06-26T11:45:39.485Z,27.78
2023-06-26T11:48:08.896Z,27.79
2023-06-26T11:53:09.025Z,27.88
2023-06-26T11:55:43.812Z,27.91
2023-06-26T11:58:11.948Z,28.02
2023-06-26T12:00:45.128Z,28.10
2023-06-26T12:03:13.664Z,28.09
2023-06-26T12:05:42.396Z,28.04
2023-06-26T12:08:10.556Z,28.02
2023-06-26T12:10:39.238Z,28.02
2023-06-26T12:13:09.271Z,28.07
2023-06-26T12:15:37.654Z,28.17
2023-06-26T12:18:09.981Z,28.16
2023-06-26T12:20:42.112Z,28.20
2023-06-26T12:23:14.790Z,28.26
2023-06-26T12:25:42.938Z,28.27
2023-06-26T12:28:19.009Z,28.29
2023-06-26T12:30:48.304Z,28.27
2023-06-26T12:33:17.395Z,28.24
2023-06-26T12:35:46.907Z,28.30
2023-06-26T12:38:16.661Z,28.32
2023-06-26T12:40:48.388Z,28.37
2023-06-26T12:43:25.118Z,28.45
2023-06-26T12:45:58.949Z,28.58
2023-06-26T12:48:48.626Z,28.69
2023-06-26T12:51:18.129Z,28.81
2023-06-26T12:53:46.197Z,28.92
2023-06-26T12:56:14.176Z,29.08
2023-06-26T12:58:42.064Z,29.22
2023-06-26T13:01:15.776Z,29.31
2023-06-26T13:03:44.081Z,29.37
2023-06-26T13:06:13.519Z,29.42
2023-06-26T13:08:41.525Z,29.47
2023-06-26T13:11:09.607Z,29.53
2023-06-26T13:13:37.943Z,29.54
2023-06-26T13:16:06.587Z,29.42
2023-06-26T13:18:34.806Z,29.19
2023-06-26T13:21:03.088Z,28.93
2023-06-26T13:23:31.261Z,28.81
2023-06-26T13:26:01.581Z,28.83
2023-06-26T13:28:30.360Z,28.90
2023-06-26T13:30:59.078Z,28.98
2023-06-26T13:33:27.338Z,29.10
2023-06-26T13:35:55.798Z,29.20
2023-06-26T13:38:27.886Z,29.25
2023-06-26T13:40:58.408Z,29.24
2023-06-26T13:43:26.566Z,29.21
2023-06-26T13:45:55.677Z,29.25
2023-06-26T13:48:25.727Z,29.26
2023-06-26T13:50:55.059Z,29.28
2023-06-26T13:53:23.562Z,29.25
2023-06-26T13:55:51.636Z,29.14
2023-06-26T13:58:20.634Z,28.98
2023-06-26T14:00:50.564Z,28.86
2023-06-26T14:03:20.399Z,28.85
2023-06-26T14:05:49.056Z,28.81
2023-06-26T14:08:18.442Z,28.79
2023-06-26T14:10:46.375Z,28.77
2023-06-26T14:13:16.577Z,28.74
2023-06-26T14:15:44.799Z,28.66
2023-06-26T14:18:12.867Z,28.64
2023-06-26T14:20:42.116Z,28.67
2023-06-26T14:23:12.493Z,28.68
2023-06-26T14:25:40.688Z,28.64
2023-06-26T14:28:09.471Z,28.63
2023-06-26T14:30:37.750Z,28.69
2023-06-26T14:33:06.164Z,28.76
2023-06-26T14:35:34.836Z,28.73
2023-06-26T14:38:03.567Z,28.68
2023-06-26T14:40:31.869Z,28.67
2023-06-26T14:43:00.576Z,28.68
2023-06-26T14:45:29.228Z,28.71
2023-06-26T14:47:58.266Z,28.77
2023-06-26T14:50:26.397Z,28.88
2023-06-26T14:52:54.674Z,28.97
2023-06-26T14:55:22.948Z,29.06
2023-06-26T14:57:51.225Z,29.10
2023-06-26T15:00:20.861Z,29.17
2023-06-26T15:02:57.283Z,29.23
2023-06-26T15:05:27.173Z,29.30
2023-06-26T15:07:55.285Z,29.37
2023-06-26T15:10:24.159Z,29.40
2023-06-26T15:12:53.582Z,29.43
2023-06-26T15:15:22.465Z,29.47
2023-06-26T15:17:52.699Z,29.52
2023-06-26T15:20:21.431Z,29.53
2023-06-26T15:22:49.859Z,29.51
2023-06-26T15:25:18.152Z,29.45
2023-06-26T15:27:46.420Z,29.49
2023-06-26T15:30:15.985Z,30.00
2023-06-26T15:32:44.276Z,30.98
2023-06-26T15:35:12.574Z,32.22
2023-06-26T15:37:40.861Z,33.19
2023-06-26T15:40:09.980Z,33.90
2023-06-26T15:42:47.415Z,34.49
2023-06-26T15:45:19.065Z,35.39
2023-06-26T15:47:47.501Z,36.33
2023-06-26T15:50:16.052Z,36.92
2023-06-26T15:52:44.338Z,37.11
2023-06-26T15:55:12.703Z,36.90
2023-06-26T15:57:43.406Z,36.47
2023-06-26T16:00:13.491Z,35.79
2023-06-26T16:02:42.162Z,34.90
2023-06-26T16:05:11.791Z,34.03
2023-06-26T16:07:55.778Z,33.36
2023-06-26T16:10:25.261Z,32.62
2023-06-26T16:12:53.576Z,31.89
2023-06-26T16:15:21.850Z,31.30
2023-06-26T16:17:50.208Z,30.89
2023-06-26T16:20:18.598Z,30.55
2023-06-26T16:22:46.666Z,30.26
2023-06-26T16:25:14.749Z,29.96
2023-06-26T16:27:46.770Z,29.69
2023-06-26T16:30:15.985Z,29.38
2023-06-26T16:32:44.250Z,29.11
2023-06-26T16:35:12.587Z,28.92
2023-06-26T16:37:40.777Z,28.71
2023-06-26T16:40:09.799Z,28.57
2023-06-26T16:42:38.204Z,28.46
2023-06-26T16:45:07.027Z,28.37
2023-06-26T16:47:38.615Z,28.29
2023-06-26T16:50:09.299Z,28.20
2023-06-26T16:52:37.690Z,28.07
2023-06-26T16:55:06.270Z,27.93
2023-06-26T16:57:34.284Z,27.73
2023-06-26T17:00:07.175Z,27.56
2023-06-26T17:02:35.610Z,27.46
2023-06-26T17:05:04.445Z,27.42
2023-06-26T17:07:32.765Z,27.42
2023-06-26T17:10:01.063Z,27.44
2023-06-26T17:12:29.239Z,27.42
2023-06-26T17:14:57.446Z,27.38
2023-06-26T17:17:25.694Z,27.38
2023-06-26T17:19:53.863Z,27.31
2023-06-26T17:22:22.042Z,27.21
2023-06-26T17:24:50.302Z,27.09
2023-06-26T17:27:22.296Z,26.96
2023-06-26T17:29:50.785Z,26.83
2023-06-26T17:32:22.053Z,26.73
2023-06-26T17:34:52.398Z,26.64
2023-06-26T17:37:28.338Z,26.59
2023-06-26T17:39:57.140Z,26.52
2023-06-26T17:42:25.466Z,26.46
2023-06-26T17:44:53.951Z,26.38
2023-06-26T17:47:23.022Z,26.31
2023-06-26T17:49:51.703Z,26.24
2023-06-26T17:52:20.140Z,26.17
2023-06-26T17:54:48.477Z,26.11
2023-06-26T17:57:16.841Z,26.05
2023-06-26T17:59:45.172Z,26.00
2023-06-26T18:02:14.206Z,25.94
2023-06-26T18:04:43.085Z,25.85
2023-06-26T18:07:13.571Z,25.76
2023-06-26T18:09:44.173Z,25.69
2023-06-26T18:12:12.848Z,25.62
2023-06-26T18:14:41.008Z,25.53
2023-06-26T18:17:09.316Z,25.44
2023-06-26T18:19:37.657Z,25.33
2023-06-26T18:22:06.614Z,25.22
2023-06-26T18:24:35.241Z,25.09
2023-06-26T18:27:03.792Z,24.96
2023-06-26T18:29:32.756Z,24.82
2023-06-26T18:32:02.674Z,24.68
2023-06-26T18:34:31.413Z,24.55
2023-06-26T18:37:00.078Z,24.42
2023-06-26T18:39:28.756Z,24.28
2023-06-26T18:41:56.924Z,24.16
2023-06-26T18:44:25.576Z,24.04
2023-06-26T18:46:54.015Z,23.94
2023-06-26T18:49:22.807Z,23.83
2023-06-26T18:51:51.295Z,23.74
2023-06-26T18:54:20.032Z,23.62
2023-06-26T18:56:48.671Z,23.51
2023-06-26T18:59:18.166Z,23.39
2023-06-26T19:01:46.778Z,23.28
2023-06-26T19:04:16.578Z,23.17
2023-06-26T19:06:45.746Z,23.08
2023-06-26T19:09:14.494Z,23.00
2023-06-26T19:11:43.163Z,22.92
2023-06-26T19:14:14.396Z,22.84
2023-06-26T19:16:43.540Z,22.75
2023-06-26T19:19:14.832Z,22.66
2023-06-26T19:21:44.025Z,22.59
2023-06-26T19:24:15.535Z,22.51
2023-06-26T19:26:48.872Z,22.44
2023-06-26T19:29:17.956Z,22.38
2023-06-26T19:31:46.646Z,22.32
2023-06-26T19:34:15.264Z,22.27
2023-06-26T19:36:44.546Z,22.22
2023-06-26T19:39:13.470Z,22.15
2023-06-26T19:41:42.678Z,22.11
2023-06-26T19:44:11.240Z,22.08
2023-06-26T19:46:40.000Z,22.05
2023-06-26T19:49:08.706Z,22.03
2023-06-26T19:51:37.252Z,21.99
2023-06-26T19:54:07.061Z,21.97
2023-06-26T19:56:35.418Z,21.92
2023-06-26T19:59:04.644Z,21.89
2023-06-26T20:01:33.572Z,21.86
2023-06-26T20:04:11.417Z,21.82
2023-06-26T20:06:40.918Z,21.79
2023-06-26T20:09:09.814Z,21.76
2023-06-26T20:11:39.557Z,21.72
2023-06-26T20:14:10.527Z,21.69
2023-06-26T20:16:39.453Z,21.65
2023-06-26T20:19:08.001Z,21.62
2023-06-26T20:21:42.973Z,21.59
2023-06-26T20:24:13.980Z,21.55
2023-06-26T20:26:44.930Z,21.52
2023-06-26T20:29:19.279Z,21.48
2023-06-26T20:31:50.413Z,21.46
2023-06-26T20:34:19.709Z,21.47
2023-06-26T20:36:48.916Z,21.48
2023-06-26T20:39:18.564Z,21.48
2023-06-26T20:41:48.010Z,21.47
2023-06-26T20:44:17.680Z,21.45
2023-06-26T20:46:46.647Z,21.43
2023-06-26T20:49:15.802Z,21.42
2023-06-26T20:51:45.042Z,21.41
2023-06-26T20:54:14.514Z,21.41
2023-06-26T20:56:43.208Z,21.39
2023-06-26T20:59:14.924Z,21.37
2023-06-26T21:01:48.409Z,21.36
2023-06-26T21:04:17.220Z,21.35
2023-06-26T21:06:48.526Z,21.34
2023-06-26T21:09:17.741Z,21.32
2023-06-26T21:11:53.015Z,21.29
2023-06-26T21:14:22.657Z,21.27
2023-06-26T21:16:51.930Z,21.25
2023-06-26T21:19:22.525Z,21.23
2023-06-26T21:21:51.570Z,21.20
2023-06-26T21:24:23.508Z,21.18
2023-06-26T21:26:55.815Z,21.17
2023-06-26T21:29:26.888Z,21.14
2023-06-26T21:31:55.728Z,21.13
2023-06-26T21:34:24.391Z,21.09
2023-06-26T21:36:55.616Z,21.05
2023-06-26T21:39:23.828Z,21.01
2023-06-26T21:41:52.110Z,20.97
2023-06-26T21:44:20.701Z,20.95
2023-06-26T21:46:49.842Z,20.93
2023-06-26T21:49:18.247Z,20.89
2023-06-26T21:51:47.143Z,20.86
2023-06-26T21:54:16.342Z,20.83
2023-06-26T21:56:48.393Z,20.81
2023-06-26T21:59:17.191Z,20.79
2023-06-26T22:01:46.311Z,20.75
2023-06-26T22:04:14.854Z,20.72
2023-06-26T22:06:44.339Z,20.70
2023-06-26T22:09:13.585Z,20.68
2023-06-26T22:11:42.380Z,20.65
2023-06-26T22:14:10.939Z,20.61
2023-06-26T22:16:39.794Z,20.58
2023-06-26T22:19:10.121Z,20.54
2023-06-26T22:21:39.800Z,20.49
2023-06-26T22:24:08.583Z,20.44
2023-06-26T22:26:37.961Z,20.39
2023-06-26T22:29:09.810Z,20.35
2023-06-26T22:31:39.895Z,20.32
2023-06-26T22:34:12.807Z,20.27
2023-06-26T22:36:43.381Z,20.23
2023-06-26T22:39:12.357Z,20.20
2023-06-26T22:41:42.652Z,20.17
2023-06-26T22:44:14.938Z,20.13
2023-06-26T22:46:44.851Z,20.09
2023-06-26T22:49:14.188Z,20.04
2023-06-26T22:51:43.337Z,19.98
2023-06-26T22:54:13.645Z,19.91
2023-06-26T22:56:54.460Z,19.86
2023-06-26T22:59:25.311Z,19.84
2023-06-26T23:01:57.359Z,19.80
2023-06-26T23:04:26.714Z,19.75
2023-06-26T23:06:58.736Z,19.72
2023-06-26T23:09:34.011Z,19.70
2023-06-26T23:12:03.292Z,19.68
2023-06-26T23:14:32.718Z,19.67
2023-06-26T23:17:05.689Z,19.66
2023-06-26T23:19:40.575Z,19.64
2023-06-26T23:22:12.878Z,19.62
2023-06-26T23:24:44.787Z,19.61
2023-06-26T23:27:13.838Z,19.61
2023-06-26T23:29:46.123Z,19.59
2023-06-26T23:32:16.246Z,19.57
2023-06-26T23:34:45.047Z,19.55
2023-06-26T23:37:14.339Z,19.53
2023-06-26T23:39:45.381Z,19.53
2023-06-26T23:42:17.161Z,19.58
2023-06-26T23:44:50.629Z,19.61
2023-06-26T23:47:20.493Z,19.62
2023-06-26T23:49:49.400Z,19.62
2023-06-26T23:52:21.049Z,19.59
2023-06-26T23:54:52.410Z,19.55
2023-06-26T23:57:20.279Z,19.51
2023-06-26T23:59:48.145Z,19.44
